createdAt,value
2023-01-28T00:01:06.936Z,6.90
2023-01-28T00:03:33.792Z,3.30
2023-01-28T00:06:08.678Z,4.40
2023-01-28T00:08:35.633Z,4.47
2023-01-28T00:11:04.608Z,2.27
2023-01-28T00:13:31.399Z,2.07
2023-01-28T00:16:00.121Z,2.23
2023-01-28T00:18:30.798Z,1.60
2023-01-28T00:20:59.585Z,1.33
2023-01-28T00:23:27.521Z,1.40
2023-01-28T00:25:54.849Z,1.97
2023-01-28T00:28:22.584Z,1.07
2023-01-28T00:30:49.651Z,1.33
2023-01-28T00:33:16.449Z,1.30
2023-01-28T00:35:43.291Z,1.80
2023-01-28T00:38:10.574Z,2.50
2023-01-28T00:40:37.272Z,1.30
2023-01-28T00:43:04.457Z,3.00
2023-01-28T00:45:31.103Z,2.37
2023-01-28T00:47:58.148Z,2.27
2023-01-28T00:50:24.764Z,1.80
2023-01-28T00:52:51.476Z,1.60
2023-01-28T00:55:18.415Z,1.40
2023-01-28T00:57:45.026Z,1.57
2023-01-28T01:00:12.004Z,1.43
2023-01-28T01:02:40.932Z,2.00
2023-01-28T01:05:08.824Z,1.60
2023-01-28T01:07:42.099Z,1.60
2023-01-28T01:10:14.712Z,2.03
2023-01-28T01:12:41.814Z,1.57
2023-01-28T01:15:10.533Z,2.10
2023-01-28T01:17:38.518Z,1.90
2023-01-28T01:20:07.254Z,1.83
2023-01-28T01:22:35.864Z,1.40
2023-01-28T01:25:04.035Z,1.60
2023-01-28T01:27:31.433Z,6.60
2023-01-28T01:29:58.959Z,1.87
2023-01-28T01:32:30.335Z,1.60
2023-01-28T01:34:57.100Z,2.00
2023-01-28T01:37:23.874Z,1.70
2023-01-28T01:39:50.557Z,1.80
2023-01-28T01:42:17.262Z,1.50
2023-01-28T01:45:00.965Z,1.60
2023-01-28T01:47:33.303Z,2.37
2023-01-28T01:50:12.632Z,1.83
2023-01-28T01:52:41.341Z,1.53
2023-01-28T01:55:14.402Z,1.77
2023-01-28T01:57:42.035Z,3.17
2023-01-28T02:00:09.435Z,1.50
2023-01-28T02:02:40.612Z,1.77
2023-01-28T02:05:10.187Z,1.80
2023-01-28T02:07:37.793Z,1.60
2023-01-28T02:10:06.630Z,1.30
2023-01-28T02:12:36.536Z,1.97
2023-01-28T02:15:14.315Z,2.20
2023-01-28T02:17:42.069Z,1.40
2023-01-28T02:20:12.105Z,1.83
2023-01-28T02:23:16.273Z,1.50
2023-01-28T02:25:45.692Z,1.83
2023-01-28T02:28:24.977Z,4.17
2023-01-28T02:31:02.884Z,4.80
2023-01-28T02:33:39.459Z,1.87
2023-01-28T02:36:43.778Z,2.00
2023-01-28T02:39:18.490Z,1.70
2023-01-28T02:41:56.688Z,1.40
2023-01-28T02:44:24.196Z,2.03
2023-01-28T02:47:11.786Z,1.50
2023-01-28T02:49:53.407Z,1.40
2023-01-28T02:52:46.006Z,1.70
2023-01-28T02:55:18.828Z,1.93
2023-01-28T02:58:18.175Z,1.73
2023-01-28T03:00:50.075Z,1.60
2023-01-28T03:03:35.603Z,3.60
2023-01-28T03:06:08.547Z,1.70
2023-01-28T03:09:06.306Z,1.50
2023-01-28T03:11:57.584Z,1.80
2023-01-28T03:14:43.999Z,1.93
2023-01-28T03:18:00.236Z,2.17
2023-01-28T03:20:53.060Z,1.73
2023-01-28T03:23:46.138Z,1.90
2023-01-28T03:26:33.137Z,1.43
2023-01-28T03:29:26.435Z,1.50
2023-01-28T03:32:13.897Z,2.00
2023-01-28T03:34:59.750Z,1.53
2023-01-28T03:37:28.656Z,1.53
2023-01-28T03:39:58.145Z,1.50
2023-01-28T03:42:24.833Z,1.20
2023-01-28T03:44:54.759Z,1.40
2023-01-28T03:47:26.848Z,2.50
2023-01-28T03:49:55.928Z,1.43
2023-01-28T03:52:25.380Z,1.70
2023-01-28T03:54:52.981Z,1.70
2023-01-28T03:57:25.277Z,1.77
2023-01-28T03:59:52.927Z,1.60
2023-01-28T04:02:23.305Z,1.80
2023-01-28T04:04:50.361Z,1.47
2023-01-28T04:07:18.221Z,1.80
2023-01-28T04:09:44.992Z,1.80
2023-01-28T04:12:11.990Z,1.53
2023-01-28T04:14:40.085Z,1.83
2023-01-28T04:17:11.182Z,1.60
2023-01-28T04:19:38.026Z,1.70
2023-01-28T04:22:10.656Z,2.13
2023-01-28T04:24:37.251Z,1.90
2023-01-28T04:27:04.030Z,1.70
2023-01-28T04:29:31.623Z,2.13
2023-01-28T04:31:58.260Z,1.90
2023-01-28T04:34:24.874Z,1.90
2023-01-28T04:36:51.528Z,1.73
2023-01-28T04:39:18.187Z,2.10
2023-01-28T04:41:44.958Z,1.97
2023-01-28T04:44:11.672Z,1.83
2023-01-28T04:46:38.391Z,2.20
2023-01-28T04:49:05.092Z,1.93
2023-01-28T04:51:31.827Z,1.87
2023-01-28T04:53:58.490Z,1.70
2023-01-28T04:56:25.143Z,1.60
2023-01-28T04:58:51.774Z,3.23
2023-01-28T05:01:18.531Z,1.90
2023-01-28T05:03:45.179Z,1.47
2023-01-28T05:06:12.011Z,2.60
2023-01-28T05:08:38.724Z,1.60
2023-01-28T05:11:05.806Z,2.50
2023-01-28T05:13:32.515Z,2.23
2023-01-28T05:15:59.318Z,2.10
2023-01-28T05:18:25.956Z,2.03
2023-01-28T05:20:52.577Z,2.07
2023-01-28T05:23:19.327Z,1.90
2023-01-28T05:25:46.635Z,2.97
2023-01-28T05:28:13.288Z,2.90
2023-01-28T05:30:39.986Z,1.83
2023-01-28T05:33:06.635Z,2.93
2023-01-28T05:35:33.391Z,2.00
2023-01-28T05:38:00.149Z,4.13
2023-01-28T05:40:26.951Z,2.83
2023-01-28T05:42:53.586Z,7.10
2023-01-28T05:45:20.437Z,4.87
2023-01-28T05:47:47.139Z,3.13
2023-01-28T05:50:15.802Z,1.87
2023-01-28T05:52:42.653Z,2.43
2023-01-28T05:55:09.890Z,2.03
2023-01-28T05:57:36.764Z,3.57
2023-01-28T06:00:05.656Z,4.07
2023-01-28T06:02:32.695Z,1.93
2023-01-28T06:05:00.118Z,2.50
2023-01-28T06:07:26.825Z,2.23
2023-01-28T06:09:53.452Z,3.33
2023-01-28T06:12:20.213Z,8.77
2023-01-28T06:14:46.968Z,6.97
2023-01-28T06:17:13.689Z,8.23
2023-01-28T06:19:40.329Z,4.67
2023-01-28T06:22:06.992Z,3.13
2023-01-28T06:24:33.792Z,2.97
2023-01-28T06:27:00.453Z,3.43
2023-01-28T06:29:27.215Z,3.33
2023-01-28T06:31:54.287Z,3.53
2023-01-28T06:34:21.210Z,4.30
2023-01-28T06:36:48.298Z,2.83
2023-01-28T06:39:14.986Z,4.73
2023-01-28T06:41:41.656Z,9.27
2023-01-28T06:44:08.493Z,12.80
2023-01-28T06:46:35.358Z,4.87
2023-01-28T06:49:02.086Z,4.17
2023-01-28T06:51:28.776Z,3.77
2023-01-28T06:53:55.478Z,5.33
2023-01-28T06:56:22.504Z,3.37
2023-01-28T06:58:49.248Z,2.97
2023-01-28T07:01:15.987Z,2.93
2023-01-28T07:03:42.681Z,5.77
2023-01-28T07:06:09.388Z,3.03
2023-01-28T07:08:37.896Z,2.97
2023-01-28T07:11:04.718Z,2.70
2023-01-28T07:13:31.526Z,3.23
2023-01-28T07:15:58.241Z,6.30
2023-01-28T07:18:24.938Z,4.67
2023-01-28T07:20:51.616Z,3.80
2023-01-28T07:23:18.279Z,2.93
2023-01-28T07:25:44.979Z,3.50
2023-01-28T07:28:12.083Z,6.80
2023-01-28T07:30:38.764Z,6.47
2023-01-28T07:33:05.403Z,8.17
2023-01-28T07:35:32.407Z,16.57
2023-01-28T07:38:00.852Z,10.57
2023-01-28T07:40:28.601Z,6.97
2023-01-28T07:42:56.878Z,5.27
2023-01-28T07:45:25.280Z,3.77
2023-01-28T07:48:03.292Z,3.40
2023-01-28T07:50:31.148Z,3.57
2023-01-28T07:52:58.135Z,7.77
2023-01-28T07:55:25.742Z,4.73
2023-01-28T07:57:57.762Z,3.10
2023-01-28T08:00:26.117Z,3.63
2023-01-28T08:03:04.926Z,3.60
2023-01-28T08:05:52.925Z,3.87
2023-01-28T08:08:20.249Z,3.53
2023-01-28T08:10:47.467Z,3.20
2023-01-28T08:13:15.504Z,4.63
2023-01-28T08:15:42.482Z,18.20
2023-01-28T08:18:12.950Z,3.67
2023-01-28T08:20:40.457Z,3.57
2023-01-28T08:23:14.718Z,4.63
2023-01-28T08:25:41.712Z,2.70
2023-01-28T08:28:08.397Z,3.47
2023-01-28T08:30:35.681Z,3.83
2023-01-28T08:33:02.680Z,3.50
2023-01-28T08:35:29.628Z,6.60
2023-01-28T08:37:59.790Z,4.67
2023-01-28T08:40:27.053Z,4.03
2023-01-28T08:42:55.103Z,2.93
2023-01-28T08:45:27.684Z,3.83
2023-01-28T08:48:00.394Z,5.30
2023-01-28T08:50:29.558Z,5.47
2023-01-28T08:52:57.658Z,3.40
2023-01-28T08:55:25.337Z,6.23
2023-01-28T08:57:52.397Z,5.10
2023-01-28T09:00:19.914Z,4.10
2023-01-28T09:02:46.905Z,5.37
2023-01-28T09:05:13.584Z,8.63
2023-01-28T09:07:40.331Z,11.13
2023-01-28T09:10:07.318Z,11.63
2023-01-28T09:12:34.036Z,6.40
2023-01-28T09:15:00.677Z,3.57
2023-01-28T09:17:27.529Z,3.73
2023-01-28T09:19:54.206Z,6.97
2023-01-28T09:22:20.842Z,8.63
2023-01-28T09:24:47.433Z,9.17
2023-01-28T09:27:14.108Z,5.37
2023-01-28T09:29:40.807Z,14.80
2023-01-28T09:32:07.495Z,3.73
2023-01-28T09:34:34.697Z,2.60
2023-01-28T09:37:01.734Z,2.80
2023-01-28T09:39:31.539Z,2.50
2023-01-28T09:42:09.734Z,2.20
2023-01-28T09:44:36.359Z,5.30
2023-01-28T09:47:09.475Z,3.37
2023-01-28T09:49:45.153Z,4.53
2023-01-28T09:52:15.317Z,4.30
2023-01-28T09:54:52.343Z,3.70
2023-01-28T09:57:23.643Z,6.47
2023-01-28T09:59:50.783Z,5.83
2023-01-28T10:02:26.589Z,4.53
2023-01-28T10:05:35.967Z,4.50
2023-01-28T10:08:26.545Z,4.10
2023-01-28T10:11:25.821Z,3.77
2023-01-28T10:14:12.837Z,7.00
2023-01-28T10:16:45.790Z,3.13
2023-01-28T10:19:20.099Z,11.43
2023-01-28T10:21:55.767Z,11.00
2023-01-28T10:24:26.397Z,6.33
2023-01-28T10:26:53.593Z,6.53
2023-01-28T10:29:24.345Z,4.83
2023-01-28T10:31:58.431Z,8.40
2023-01-28T10:34:25.472Z,3.47
2023-01-28T10:36:52.462Z,3.10
2023-01-28T10:39:22.438Z,3.23
2023-01-28T10:41:57.808Z,3.30
2023-01-28T10:44:38.111Z,3.40
2023-01-28T10:47:16.292Z,3.73
2023-01-28T10:49:49.538Z,3.33
2023-01-28T10:52:16.778Z,3.27
2023-01-28T10:54:43.480Z,2.43
2023-01-28T10:57:13.335Z,3.90
2023-01-28T10:59:41.811Z,6.67
2023-01-28T11:02:28.584Z,3.60
2023-01-28T11:05:19.016Z,4.50
2023-01-28T11:07:45.676Z,6.43
2023-01-28T11:10:51.671Z,3.93
2023-01-28T11:13:23.430Z,4.47
2023-01-28T11:15:55.551Z,8.20
2023-01-28T11:18:28.519Z,3.60
2023-01-28T11:20:59.625Z,2.30
2023-01-28T11:23:36.717Z,2.97
2023-01-28T11:26:14.380Z,3.03
2023-01-28T11:28:42.818Z,2.43
2023-01-28T11:31:14.283Z,2.60
2023-01-28T11:34:01.273Z,2.97
2023-01-28T11:36:30.049Z,3.17
2023-01-28T11:39:00.228Z,3.90
2023-01-28T11:41:39.221Z,9.20
2023-01-28T11:44:26.330Z,11.83
2023-01-28T11:47:07.809Z,4.47
2023-01-28T11:50:20.985Z,6.57
2023-01-28T11:53:16.793Z,4.60
2023-01-28T11:55:52.793Z,8.47
2023-01-28T11:58:23.973Z,3.07
2023-01-28T12:01:03.079Z,4.80
2023-01-28T12:03:59.159Z,5.13
2023-01-28T12:06:50.601Z,2.90
2023-01-28T12:09:39.885Z,2.73
2023-01-28T12:12:20.532Z,2.87
2023-01-28T12:15:20.338Z,3.77
2023-01-28T12:18:20.997Z,3.97
2023-01-28T12:20:59.561Z,6.40
2023-01-28T12:23:54.314Z,5.30
2023-01-28T12:26:37.968Z,5.33
2023-01-28T12:29:20.597Z,3.40
2023-01-28T12:32:19.494Z,3.40
2023-01-28T12:34:46.092Z,3.33
2023-01-28T12:37:31.002Z,3.30
2023-01-28T12:40:33.759Z,3.67
2023-01-28T12:43:33.815Z,5.00
2023-01-28T12:46:11.253Z,3.00
2023-01-28T12:48:42.700Z,2.90
2023-01-28T12:51:16.363Z,2.63
2023-01-28T12:54:19.118Z,2.33
2023-01-28T12:56:51.922Z,3.30
2023-01-28T12:59:31.776Z,4.67
2023-01-28T13:02:03.588Z,7.13
2023-01-28T13:04:45.283Z,5.10
2023-01-28T13:07:28.610Z,3.73
2023-01-28T13:10:05.344Z,5.20
2023-01-28T13:12:33.490Z,4.07
2023-01-28T13:15:00.988Z,4.17
2023-01-28T13:17:30.489Z,8.73
2023-01-28T13:19:58.645Z,3.87
2023-01-28T13:22:35.133Z,13.23
2023-01-28T13:25:24.078Z,5.57
2023-01-28T13:28:24.712Z,2.87
2023-01-28T13:30:53.442Z,7.30
2023-01-28T13:33:30.729Z,6.60
2023-01-28T13:35:58.174Z,3.50
2023-01-28T13:38:24.896Z,3.20
2023-01-28T13:41:00.855Z,6.00
2023-01-28T13:43:40.961Z,7.33
2023-01-28T13:46:14.154Z,3.00
2023-01-28T13:48:51.840Z,3.90
2023-01-28T13:51:30.079Z,8.40
2023-01-28T13:54:00.162Z,3.40
2023-01-28T13:56:35.715Z,3.23
2023-01-28T13:59:02.432Z,19.90
2023-01-28T14:01:47.925Z,7.00
2023-01-28T14:04:39.009Z,9.10
2023-01-28T14:07:42.683Z,6.83
2023-01-28T14:10:31.874Z,5.93
2023-01-28T14:13:05.801Z,4.50
2023-01-28T14:15:53.509Z,3.50
2023-01-28T14:18:27.703Z,2.70
2023-01-28T14:20:56.864Z,2.97
2023-01-28T14:23:26.603Z,3.30
2023-01-28T14:26:11.441Z,3.80
2023-01-28T14:29:10.784Z,2.20
2023-01-28T14:31:39.531Z,2.70
2023-01-28T14:34:11.824Z,3.27
2023-01-28T14:36:44.738Z,3.97
2023-01-28T14:39:26.345Z,5.93
2023-01-28T14:41:56.673Z,2.13
2023-01-28T14:44:41.385Z,2.27
2023-01-28T14:47:31.034Z,3.80
2023-01-28T14:50:27.897Z,6.50
2023-01-28T14:53:17.394Z,4.10
2023-01-28T14:56:21.986Z,3.80
2023-01-28T14:59:12.888Z,5.30
2023-01-28T15:01:48.290Z,3.13
2023-01-28T15:04:25.435Z,2.63
2023-01-28T15:06:52.294Z,3.53
2023-01-28T15:09:18.992Z,3.40
2023-01-28T15:11:49.591Z,4.00
2023-01-28T15:14:31.564Z,5.77
2023-01-28T15:16:59.505Z,8.80
2023-01-28T15:19:30.313Z,8.83
2023-01-28T15:21:59.365Z,9.87
2023-01-28T15:24:26.481Z,6.40
2023-01-28T15:26:53.673Z,13.57
2023-01-28T15:29:31.431Z,7.60
2023-01-28T15:31:59.000Z,5.73
2023-01-28T15:34:31.754Z,12.03
2023-01-28T15:36:59.840Z,3.30
2023-01-28T15:39:29.106Z,11.33
2023-01-28T15:41:59.427Z,4.63
2023-01-28T15:44:30.982Z,8.40
2023-01-28T15:46:59.470Z,4.33
2023-01-28T15:49:35.685Z,1.97
2023-01-28T15:52:02.962Z,7.10
2023-01-28T15:54:30.750Z,9.40
2023-01-28T15:57:07.997Z,4.87
2023-01-28T15:59:34.656Z,22.40
2023-01-28T16:02:17.503Z,20.73
2023-01-28T16:04:44.353Z,9.97
2023-01-28T16:07:11.136Z,7.23
2023-01-28T16:09:37.897Z,2.97
2023-01-28T16:12:11.286Z,4.40
2023-01-28T16:14:45.351Z,2.50
2023-01-28T16:17:17.967Z,3.67
2023-01-28T16:19:48.824Z,3.80
2023-01-28T16:22:31.847Z,3.90
2023-01-28T16:24:58.531Z,4.03
2023-01-28T16:27:27.259Z,4.63
2023-01-28T16:29:54.231Z,9.70
2023-01-28T16:32:30.761Z,8.40
2023-01-28T16:34:57.512Z,11.63
2023-01-28T16:37:24.145Z,4.90
2023-01-28T16:39:50.853Z,4.00
2023-01-28T16:42:17.786Z,4.70
2023-01-28T16:44:45.161Z,26.73
2023-01-28T16:47:12.007Z,20.60
2023-01-28T16:49:38.888Z,6.70
2023-01-28T16:52:06.015Z,12.33
2023-01-28T16:54:34.493Z,9.33
2023-01-28T16:57:01.445Z,3.50
2023-01-28T16:59:28.083Z,5.03
2023-01-28T17:01:54.774Z,4.50
2023-01-28T17:04:21.460Z,6.27
2023-01-28T17:06:48.208Z,35.37
2023-01-28T17:09:15.213Z,20.00
2023-01-28T17:11:41.927Z,20.90
2023-01-28T17:14:10.156Z,17.00
2023-01-28T17:16:37.370Z,11.07
2023-01-28T17:19:04.359Z,30.83
2023-01-28T17:21:31.036Z,16.43
2023-01-28T17:23:59.278Z,14.87
2023-01-28T17:26:26.298Z,9.70
2023-01-28T17:28:53.966Z,8.10
2023-01-28T17:31:22.005Z,6.13
2023-01-28T17:33:54.963Z,8.87
2023-01-28T17:36:22.430Z,8.33
2023-01-28T17:38:49.166Z,6.83
2023-01-28T17:41:17.523Z,3.63
2023-01-28T17:43:44.505Z,8.70
2023-01-28T17:46:15.548Z,7.40
2023-01-28T17:48:45.589Z,15.33
2023-01-28T17:51:13.866Z,20.73
2023-01-28T17:53:44.699Z,18.60
2023-01-28T17:56:28.424Z,14.37
2023-01-28T17:59:06.479Z,5.13
2023-01-28T18:01:34.816Z,7.93
2023-01-28T18:04:01.552Z,7.60
2023-01-28T18:06:33.208Z,18.70
2023-01-28T18:09:00.044Z,27.27
2023-01-28T18:11:28.525Z,20.73
2023-01-28T18:13:55.261Z,6.90
2023-01-28T18:16:22.018Z,4.23
2023-01-28T18:18:50.320Z,4.40
2023-01-28T18:21:31.666Z,6.07
2023-01-28T18:24:01.526Z,9.83
2023-01-28T18:26:28.331Z,8.70
2023-01-28T18:28:54.938Z,7.90
2023-01-28T18:31:21.646Z,3.13
2023-01-28T18:33:49.016Z,3.10
2023-01-28T18:36:16.533Z,8.90
2023-01-28T18:38:43.768Z,9.90
2023-01-28T18:41:10.431Z,16.43
2023-01-28T18:43:37.140Z,18.33
2023-01-28T18:46:11.455Z,30.57
2023-01-28T18:48:38.333Z,10.20
2023-01-28T18:51:06.481Z,7.90
2023-01-28T18:53:34.004Z,4.37
2023-01-28T18:56:02.405Z,8.73
2023-01-28T18:58:29.081Z,7.57
2023-01-28T19:00:55.997Z,4.10
2023-01-28T19:03:22.947Z,6.30
2023-01-28T19:05:49.687Z,3.63
2023-01-28T19:08:16.862Z,7.27
2023-01-28T19:10:43.630Z,8.53
2023-01-28T19:13:10.334Z,5.90
2023-01-28T19:15:37.084Z,4.07
2023-01-28T19:18:03.922Z,6.53
2023-01-28T19:20:30.596Z,3.87
2023-01-28T19:22:57.235Z,8.10
2023-01-28T19:25:23.981Z,6.30
2023-01-28T19:31:39.458Z,2.10
2023-01-28T19:34:06.703Z,3.60
2023-01-28T19:36:34.398Z,5.07
2023-01-28T19:39:04.342Z,4.67
2023-01-28T19:41:31.748Z,1.87
2023-01-28T19:43:58.961Z,5.33
2023-01-28T19:46:26.091Z,4.80
2023-01-28T19:48:53.260Z,2.33
2023-01-28T19:51:20.221Z,3.60
2023-01-28T19:53:50.583Z,2.90
2023-01-28T19:56:18.528Z,5.20
2023-01-28T19:58:46.094Z,5.17
2023-01-28T20:01:16.514Z,5.20
2023-01-28T20:03:44.280Z,6.17
2023-01-28T20:06:13.706Z,3.77
2023-01-28T20:08:40.764Z,14.70
2023-01-28T20:11:10.055Z,12.90
2023-01-28T20:13:38.513Z,5.50
2023-01-28T20:16:10.912Z,6.00
2023-01-28T20:18:37.586Z,4.07
2023-01-28T20:21:07.536Z,3.20
2023-01-28T20:23:34.330Z,5.07
2023-01-28T20:26:01.122Z,4.30
2023-01-28T20:28:28.175Z,14.20
2023-01-28T20:30:55.721Z,10.77
2023-01-28T20:33:23.542Z,6.63
2023-01-28T20:35:50.194Z,5.10
2023-01-28T20:38:16.894Z,6.30
2023-01-28T20:40:43.916Z,7.20
2023-01-28T20:43:11.209Z,3.40
2023-01-28T20:45:38.240Z,5.03
2023-01-28T20:48:05.152Z,4.00
2023-01-28T20:50:32.459Z,5.00
2023-01-28T20:52:59.104Z,3.83
2023-01-28T20:55:25.821Z,4.00
2023-01-28T20:57:52.653Z,3.37
2023-01-28T21:00:20.144Z,6.43
2023-01-28T21:02:46.888Z,3.97
2023-01-28T21:05:13.709Z,3.20
2023-01-28T21:07:40.672Z,4.90
2023-01-28T21:10:07.968Z,3.83
2023-01-28T21:12:34.673Z,4.10
2023-01-28T21:15:01.409Z,4.77
2023-01-28T21:17:28.108Z,4.40
2023-01-28T21:19:54.885Z,5.03
2023-01-28T21:22:21.532Z,3.67
2023-01-28T21:24:51.090Z,4.33
2023-01-28T21:27:17.991Z,7.27
2023-01-28T21:29:44.750Z,6.70
2023-01-28T21:32:11.474Z,7.70
2023-01-28T21:34:38.160Z,8.67
2023-01-28T21:37:04.880Z,10.03
2023-01-28T21:39:31.517Z,6.00
2023-01-28T21:41:58.159Z,9.73
2023-01-28T21:44:25.005Z,10.53
2023-01-28T21:46:51.639Z,8.97
2023-01-28T21:49:18.401Z,7.50
2023-01-28T21:51:48.057Z,9.63
2023-01-28T21:54:19.553Z,12.03
2023-01-28T21:56:48.156Z,12.00
2023-01-28T21:59:28.097Z,9.70
2023-01-28T22:01:54.911Z,10.13
2023-01-28T22:04:22.465Z,7.10
2023-01-28T22:06:49.366Z,7.87
2023-01-28T22:09:16.160Z,3.03
2023-01-28T22:11:44.677Z,5.33
2023-01-28T22:14:12.273Z,4.20
2023-01-28T22:16:39.167Z,3.53
2023-01-28T22:19:05.924Z,4.07
2023-01-28T22:21:32.956Z,6.27
2023-01-28T22:23:59.824Z,5.20
2023-01-28T22:26:26.510Z,4.40
2023-01-28T22:28:53.281Z,4.83
2023-01-28T22:31:20.051Z,4.20
2023-01-28T22:33:47.042Z,5.70
2023-01-28T22:36:16.022Z,6.80
2023-01-28T22:38:44.896Z,9.93
2023-01-28T22:41:23.287Z,6.60
2023-01-28T22:43:51.052Z,5.57
2023-01-28T22:46:18.869Z,5.57
2023-01-28T22:48:45.861Z,4.90
2023-01-28T22:51:18.006Z,4.97
2023-01-28T22:53:46.508Z,7.50
2023-01-28T22:56:14.440Z,9.47
2023-01-28T22:58:41.793Z,8.07
2023-01-28T23:01:08.603Z,6.77
2023-01-28T23:03:35.714Z,6.87
2023-01-28T23:06:04.623Z,7.13
2023-01-28T23:08:32.504Z,7.93
2023-01-28T23:11:02.356Z,5.40
2023-01-28T23:13:52.911Z,5.37
2023-01-28T23:16:58.528Z,10.83
2023-01-28T23:19:44.215Z,4.50
2023-01-28T23:22:57.428Z,6.03
2023-01-28T23:25:24.317Z,5.87
2023-01-28T23:27:51.009Z,5.40
2023-01-28T23:30:19.746Z,5.37
2023-01-28T23:32:49.179Z,7.00
2023-01-28T23:35:17.391Z,5.63
2023-01-28T23:37:44.267Z,5.73
2023-01-28T23:40:12.046Z,4.60
2023-01-28T23:42:38.888Z,6.70
2023-01-28T23:45:06.495Z,6.60
2023-01-28T23:47:33.274Z,6.77
2023-01-28T23:50:00.466Z,4.13
2023-01-28T23:52:27.275Z,4.73
2023-01-28T23:54:53.995Z,6.20
2023-01-28T23:57:20.630Z,4.80
2023-01-28T23:59:47.267Z,6.00
